sensor_id;sensor_type;location;lat;lon;timestamp;P1;durP1;ratioP1;P2;durP2;ratioP2
48935;SDS011;34745;52.276;10.528;2022-12-28T00:01:10;12.87;;;5.67;;
48935;SDS011;34745;52.276;10.528;2022-12-28T00:03:38;12.40;;;5.13;;
48935;SDS011;34745;52.276;10.528;2022-12-28T00:06:06;16.17;;;5.50;;
48935;SDS011;34745;52.276;10.528;2022-12-28T00:08:33;11.50;;;5.20;;
48935;SDS011;34745;52.276;10.528;2022-12-28T00:11:00;11.60;;;5.30;;
48935;SDS011;34745;52.276;10.528;2022-12-28T00:13:37;19.03;;;5.17;;
48935;SDS011;34745;52.276;10.528;2022-12-28T00:16:04;13.33;;;4.80;;
48935;SDS011;34745;52.276;10.528;2022-12-28T00:18:32;16.37;;;6.43;;
48935;SDS011;34745;52.276;10.528;2022-12-28T00:21:00;13.47;;;6.00;;
48935;SDS011;34745;52.276;10.528;2022-12-28T00:23:28;15.63;;;5.30;;
48935;SDS011;34745;52.276;10.528;2022-12-28T00:25:55;14.87;;;6.43;;
48935;SDS011;34745;52.276;10.528;2022-12-28T00:28:30;18.33;;;7.60;;
48935;SDS011;34745;52.276;10.528;2022-12-28T00:30:58;16.67;;;7.97;;
48935;SDS011;34745;52.276;10.528;2022-12-28T00:33:25;15.40;;;5.57;;
48935;SDS011;34745;52.276;10.528;2022-12-28T00:35:52;13.60;;;5.53;;
48935;SDS011;34745;52.276;10.528;2022-12-28T00:38:19;15.17;;;5.40;;
48935;SDS011;34745;52.276;10.528;2022-12-28T00:40:46;8.90;;;4.13;;
48935;SDS011;34745;52.276;10.528;2022-12-28T00:43:13;15.83;;;4.83;;
48935;SDS011;34745;52.276;10.528;2022-12-28T00:45:42;14.77;;;4.50;;
48935;SDS011;34745;52.276;10.528;2022-12-28T00:48:11;12.00;;;3.63;;
48935;SDS011;34745;52.276;10.528;2022-12-28T00:50:38;10.73;;;3.53;;
48935;SDS011;34745;52.276;10.528;2022-12-28T00:53:06;7.43;;;2.83;;
48935;SDS011;34745;52.276;10.528;2022-12-28T00:55:33;7.70;;;3.63;;
48935;SDS011;34745;52.276;10.528;2022-12-28T00:58:00;9.90;;;3.23;;
48935;SDS011;34745;52.276;10.528;2022-12-28T01:00:29;9.00;;;3.00;;
48935;SDS011;34745;52.276;10.528;2022-12-28T01:02:56;5.53;;;2.77;;
48935;SDS011;34745;52.276;10.528;2022-12-28T01:05:25;10.00;;;3.27;;
48935;SDS011;34745;52.276;10.528;2022-12-28T01:07:52;9.50;;;2.93;;
48935;SDS011;34745;52.276;10.528;2022-12-28T01:10:19;13.77;;;3.13;;
48935;SDS011;34745;52.276;10.528;2022-12-28T01:12:46;6.87;;;2.90;;
48935;SDS011;34745;52.276;10.528;2022-12-28T01:15:13;7.40;;;2.90;;
48935;SDS011;34745;52.276;10.528;2022-12-28T01:17:40;4.33;;;2.70;;
48935;SDS011;34745;52.276;10.528;2022-12-28T01:20:07;9.33;;;3.00;;
48935;SDS011;34745;52.276;10.528;2022-12-28T01:22:36;6.67;;;2.67;;
48935;SDS011;34745;52.276;10.528;2022-12-28T01:25:04;7.03;;;2.83;;
48935;SDS011;34745;52.276;10.528;2022-12-28T01:27:31;5.97;;;2.43;;
48935;SDS011;34745;52.276;10.528;2022-12-28T01:29:58;8.40;;;2.97;;
48935;SDS011;34745;52.276;10.528;2022-12-28T01:32:25;9.50;;;3.00;;
48935;SDS011;34745;52.276;10.528;2022-12-28T01:34:52;5.77;;;2.60;;
48935;SDS011;34745;52.276;10.528;2022-12-28T01:37:19;7.37;;;2.83;;
48935;SDS011;34745;52.276;10.528;2022-12-28T01:39:47;5.93;;;3.07;;
48935;SDS011;34745;52.276;10.528;2022-12-28T01:42:14;10.77;;;2.73;;
48935;SDS011;34745;52.276;10.528;2022-12-28T01:44:43;5.10;;;2.67;;
48935;SDS011;34745;52.276;10.528;2022-12-28T01:47:12;5.83;;;2.33;;
48935;SDS011;34745;52.276;10.528;2022-12-28T01:49:43;10.90;;;2.90;;
48935;SDS011;34745;52.276;10.528;2022-12-28T01:52:15;8.67;;;3.07;;
48935;SDS011;34745;52.276;10.528;2022-12-28T01:54:46;7.20;;;2.40;;
48935;SDS011;34745;52.276;10.528;2022-12-28T01:57:17;8.43;;;2.37;;
48935;SDS011;34745;52.276;10.528;2022-12-28T01:59:48;7.90;;;2.77;;
48935;SDS011;34745;52.276;10.528;2022-12-28T02:02:19;6.20;;;2.80;;
48935;SDS011;34745;52.276;10.528;2022-12-28T02:04:47;7.43;;;2.70;;
48935;SDS011;34745;52.276;10.528;2022-12-28T02:07:16;6.30;;;2.70;;
48935;SDS011;34745;52.276;10.528;2022-12-28T02:09:51;9.17;;;2.93;;
48935;SDS011;34745;52.276;10.528;2022-12-28T02:12:38;4.73;;;2.40;;
48935;SDS011;34745;52.276;10.528;2022-12-28T02:15:07;7.03;;;3.03;;
48935;SDS011;34745;52.276;10.528;2022-12-28T02:17:34;7.27;;;2.33;;
48935;SDS011;34745;52.276;10.528;2022-12-28T02:20:02;5.30;;;2.80;;
48935;SDS011;34745;52.276;10.528;2022-12-28T02:22:42;6.63;;;2.70;;
48935;SDS011;34745;52.276;10.528;2022-12-28T02:31:42;6.33;;;3.23;;
48935;SDS011;34745;52.276;10.528;2022-12-28T02:34:14;10.40;;;2.70;;
48935;SDS011;34745;52.276;10.528;2022-12-28T02:36:46;7.60;;;2.90;;
48935;SDS011;34745;52.276;10.528;2022-12-28T02:39:20;6.10;;;2.47;;
48935;SDS011;34745;52.276;10.528;2022-12-28T02:41:50;6.10;;;2.90;;
48935;SDS011;34745;52.276;10.528;2022-12-28T02:44:20;4.97;;;2.60;;
48935;SDS011;34745;52.276;10.528;2022-12-28T02:47:08;9.77;;;2.60;;
48935;SDS011;34745;52.276;10.528;2022-12-28T02:49:59;7.53;;;2.40;;
48935;SDS011;34745;52.276;10.528;2022-12-28T02:52:36;5.33;;;2.47;;
48935;SDS011;34745;52.276;10.528;2022-12-28T02:55:16;8.33;;;3.53;;
48935;SDS011;34745;52.276;10.528;2022-12-28T02:58:15;7.03;;;3.10;;
48935;SDS011;34745;52.276;10.528;2022-12-28T03:01:08;3.90;;;2.33;;
48935;SDS011;34745;52.276;10.528;2022-12-28T03:03:48;5.37;;;2.60;;
48935;SDS011;34745;52.276;10.528;2022-12-28T03:06:27;5.60;;;2.87;;
48935;SDS011;34745;52.276;10.528;2022-12-28T03:09:25;5.50;;;2.83;;
48935;SDS011;34745;52.276;10.528;2022-12-28T03:11:57;8.93;;;2.50;;
48935;SDS011;34745;52.276;10.528;2022-12-28T03:14:31;8.13;;;2.73;;
48935;SDS011;34745;52.276;10.528;2022-12-28T03:17:04;7.47;;;2.90;;
48935;SDS011;34745;52.276;10.528;2022-12-28T03:19:55;5.27;;;3.00;;
48935;SDS011;34745;52.276;10.528;2022-12-28T03:22:43;6.07;;;2.73;;
48935;SDS011;34745;52.276;10.528;2022-12-28T03:25:30;6.33;;;2.47;;
48935;SDS011;34745;52.276;10.528;2022-12-28T03:28:20;7.23;;;3.10;;
48935;SDS011;34745;52.276;10.528;2022-12-28T03:31:10;9.50;;;3.30;;
48935;SDS011;34745;52.276;10.528;2022-12-28T03:33:43;8.20;;;3.17;;
48935;SDS011;34745;52.276;10.528;2022-12-28T03:36:15;5.43;;;2.70;;
48935;SDS011;34745;52.276;10.528;2022-12-28T03:38:49;7.73;;;3.30;;
48935;SDS011;34745;52.276;10.528;2022-12-28T03:41:25;8.90;;;3.90;;
48935;SDS011;34745;52.276;10.528;2022-12-28T03:43:55;10.43;;;3.70;;
48935;SDS011;34745;52.276;10.528;2022-12-28T03:46:29;6.40;;;3.63;;
48935;SDS011;34745;52.276;10.528;2022-12-28T03:49:01;9.30;;;3.70;;
48935;SDS011;34745;52.276;10.528;2022-12-28T03:51:30;6.77;;;2.90;;
48935;SDS011;34745;52.276;10.528;2022-12-28T03:53:59;9.17;;;3.70;;
48935;SDS011;34745;52.276;10.528;2022-12-28T03:56:27;13.77;;;4.00;;
48935;SDS011;34745;52.276;10.528;2022-12-28T03:58:54;8.67;;;3.57;;
48935;SDS011;34745;52.276;10.528;2022-12-28T04:01:22;7.87;;;3.67;;
48935;SDS011;34745;52.276;10.528;2022-12-28T04:03:49;9.10;;;3.40;;
48935;SDS011;34745;52.276;10.528;2022-12-28T04:06:17;6.50;;;3.43;;
48935;SDS011;34745;52.276;10.528;2022-12-28T04:08:46;8.83;;;3.60;;
48935;SDS011;34745;52.276;10.528;2022-12-28T04:11:13;8.00;;;3.60;;
48935;SDS011;34745;52.276;10.528;2022-12-28T04:13:40;6.53;;;3.17;;
48935;SDS011;34745;52.276;10.528;2022-12-28T04:16:08;5.57;;;3.17;;
48935;SDS011;34745;52.276;10.528;2022-12-28T04:18:37;8.83;;;3.50;;
48935;SDS011;34745;52.276;10.528;2022-12-28T04:21:05;10.60;;;3.73;;
48935;SDS011;34745;52.276;10.528;2022-12-28T04:23:32;7.50;;;3.10;;
48935;SDS011;34745;52.276;10.528;2022-12-28T04:26:02;7.60;;;3.40;;
48935;SDS011;34745;52.276;10.528;2022-12-28T04:28:31;8.93;;;3.27;;
48935;SDS011;34745;52.276;10.528;2022-12-28T04:31:00;5.07;;;3.53;;
48935;SDS011;34745;52.276;10.528;2022-12-28T04:33:27;6.97;;;3.30;;
48935;SDS011;34745;52.276;10.528;2022-12-28T04:36:02;10.87;;;4.17;;
48935;SDS011;34745;52.276;10.528;2022-12-28T04:38:31;10.83;;;3.50;;
48935;SDS011;34745;52.276;10.528;2022-12-28T04:40:58;7.67;;;3.80;;
48935;SDS011;34745;52.276;10.528;2022-12-28T04:43:26;11.53;;;3.60;;
48935;SDS011;34745;52.276;10.528;2022-12-28T04:45:56;6.07;;;3.30;;
48935;SDS011;34745;52.276;10.528;2022-12-28T04:48:23;9.43;;;3.47;;
48935;SDS011;34745;52.276;10.528;2022-12-28T04:50:50;7.43;;;3.20;;
48935;SDS011;34745;52.276;10.528;2022-12-28T04:53:18;6.07;;;3.20;;
48935;SDS011;34745;52.276;10.528;2022-12-28T04:55:45;7.57;;;3.17;;
48935;SDS011;34745;52.276;10.528;2022-12-28T04:58:12;8.87;;;2.80;;
48935;SDS011;34745;52.276;10.528;2022-12-28T05:00:41;6.10;;;3.20;;
48935;SDS011;34745;52.276;10.528;2022-12-28T05:03:08;4.87;;;2.37;;
48935;SDS011;34745;52.276;10.528;2022-12-28T05:05:36;9.23;;;4.13;;
48935;SDS011;34745;52.276;10.528;2022-12-28T05:08:03;7.60;;;3.43;;
48935;SDS011;34745;52.276;10.528;2022-12-28T05:10:31;7.37;;;3.20;;
48935;SDS011;34745;52.276;10.528;2022-12-28T05:12:58;4.73;;;2.90;;
48935;SDS011;34745;52.276;10.528;2022-12-28T05:15:25;4.47;;;3.33;;
48935;SDS011;34745;52.276;10.528;2022-12-28T05:17:54;6.10;;;2.93;;
48935;SDS011;34745;52.276;10.528;2022-12-28T05:20:21;9.67;;;3.30;;
48935;SDS011;34745;52.276;10.528;2022-12-28T05:22:48;5.60;;;3.33;;
48935;SDS011;34745;52.276;10.528;2022-12-28T05:25:15;3.40;;;2.80;;
48935;SDS011;34745;52.276;10.528;2022-12-28T05:27:42;8.13;;;3.30;;
48935;SDS011;34745;52.276;10.528;2022-12-28T05:30:10;4.67;;;2.73;;
48935;SDS011;34745;52.276;10.528;2022-12-28T05:32:37;5.50;;;3.07;;
48935;SDS011;34745;52.276;10.528;2022-12-28T05:35:06;5.40;;;3.00;;
48935;SDS011;34745;52.276;10.528;2022-12-28T05:37:33;6.73;;;3.60;;
48935;SDS011;34745;52.276;10.528;2022-12-28T05:40:00;4.93;;;3.40;;
48935;SDS011;34745;52.276;10.528;2022-12-28T05:42:27;6.10;;;3.50;;
48935;SDS011;34745;52.276;10.528;2022-12-28T05:44:54;12.03;;;3.50;;
48935;SDS011;34745;52.276;10.528;2022-12-28T05:47:21;8.17;;;3.43;;
48935;SDS011;34745;52.276;10.528;2022-12-28T05:49:48;3.37;;;2.90;;
48935;SDS011;34745;52.276;10.528;2022-12-28T05:52:17;4.70;;;3.20;;
48935;SDS011;34745;52.276;10.528;2022-12-28T05:54:44;7.63;;;3.43;;
48935;SDS011;34745;52.276;10.528;2022-12-28T05:57:11;6.40;;;3.50;;
48935;SDS011;34745;52.276;10.528;2022-12-28T05:59:38;9.57;;;3.53;;
48935;SDS011;34745;52.276;10.528;2022-12-28T06:02:05;6.57;;;3.87;;
48935;SDS011;34745;52.276;10.528;2022-12-28T06:04:32;8.70;;;3.77;;
48935;SDS011;34745;52.276;10.528;2022-12-28T06:06:59;7.80;;;3.87;;
48935;SDS011;34745;52.276;10.528;2022-12-28T06:09:27;7.50;;;3.60;;
48935;SDS011;34745;52.276;10.528;2022-12-28T06:11:54;6.60;;;3.70;;
48935;SDS011;34745;52.276;10.528;2022-12-28T06:14:21;11.00;;;4.10;;
48935;SDS011;34745;52.276;10.528;2022-12-28T06:16:48;8.83;;;4.60;;
48935;SDS011;34745;52.276;10.528;2022-12-28T06:19:15;8.63;;;4.33;;
48935;SDS011;34745;52.276;10.528;2022-12-28T06:21:44;11.47;;;4.30;;
48935;SDS011;34745;52.276;10.528;2022-12-28T06:24:11;7.33;;;4.67;;
48935;SDS011;34745;52.276;10.528;2022-12-28T06:26:40;7.10;;;4.10;;
48935;SDS011;34745;52.276;10.528;2022-12-28T06:29:07;8.33;;;4.73;;
48935;SDS011;34745;52.276;10.528;2022-12-28T06:31:35;4.77;;;3.70;;
48935;SDS011;34745;52.276;10.528;2022-12-28T06:34:04;8.67;;;4.50;;
48935;SDS011;34745;52.276;10.528;2022-12-28T06:36:34;7.90;;;4.03;;
48935;SDS011;34745;52.276;10.528;2022-12-28T06:39:02;5.37;;;3.20;;
48935;SDS011;34745;52.276;10.528;2022-12-28T06:41:31;6.47;;;3.50;;
48935;SDS011;34745;52.276;10.528;2022-12-28T06:44:00;5.93;;;3.53;;
48935;SDS011;34745;52.276;10.528;2022-12-28T06:46:28;6.90;;;4.00;;
48935;SDS011;34745;52.276;10.528;2022-12-28T06:48:55;6.97;;;3.70;;
48935;SDS011;34745;52.276;10.528;2022-12-28T06:51:24;7.23;;;3.40;;
48935;SDS011;34745;52.276;10.528;2022-12-28T06:53:52;7.00;;;3.73;;
48935;SDS011;34745;52.276;10.528;2022-12-28T06:56:20;7.13;;;4.43;;
48935;SDS011;34745;52.276;10.528;2022-12-28T06:58:49;5.13;;;3.73;;
48935;SDS011;34745;52.276;10.528;2022-12-28T07:01:22;4.30;;;3.27;;
48935;SDS011;34745;52.276;10.528;2022-12-28T07:03:52;5.20;;;3.90;;
48935;SDS011;34745;52.276;10.528;2022-12-28T07:06:21;6.93;;;4.00;;
48935;SDS011;34745;52.276;10.528;2022-12-28T07:08:50;8.03;;;4.10;;
48935;SDS011;34745;52.276;10.528;2022-12-28T07:11:18;4.80;;;3.97;;
48935;SDS011;34745;52.276;10.528;2022-12-28T07:13:46;6.57;;;4.47;;
48935;SDS011;34745;52.276;10.528;2022-12-28T07:16:14;6.30;;;4.20;;
48935;SDS011;34745;52.276;10.528;2022-12-28T07:18:44;6.50;;;3.97;;
48935;SDS011;34745;52.276;10.528;2022-12-28T07:21:12;7.03;;;4.37;;
48935;SDS011;34745;52.276;10.528;2022-12-28T07:23:41;5.17;;;3.83;;
48935;SDS011;34745;52.276;10.528;2022-12-28T07:26:09;6.33;;;4.20;;
48935;SDS011;34745;52.276;10.528;2022-12-28T07:28:39;7.87;;;4.33;;
48935;SDS011;34745;52.276;10.528;2022-12-28T07:31:07;6.10;;;4.50;;
48935;SDS011;34745;52.276;10.528;2022-12-28T07:33:36;6.47;;;4.43;;
48935;SDS011;34745;52.276;10.528;2022-12-28T07:36:05;6.50;;;4.00;;
48935;SDS011;34745;52.276;10.528;2022-12-28T07:38:35;6.90;;;5.03;;
48935;SDS011;34745;52.276;10.528;2022-12-28T07:41:02;6.17;;;3.80;;
48935;SDS011;34745;52.276;10.528;2022-12-28T07:43:31;4.83;;;3.90;;
48935;SDS011;34745;52.276;10.528;2022-12-28T07:45:59;8.43;;;4.03;;
48935;SDS011;34745;52.276;10.528;2022-12-28T07:48:28;5.53;;;3.63;;
48935;SDS011;34745;52.276;10.528;2022-12-28T07:50:56;5.27;;;3.60;;
48935;SDS011;34745;52.276;10.528;2022-12-28T07:53:25;6.53;;;4.60;;
48935;SDS011;34745;52.276;10.528;2022-12-28T07:55:55;5.17;;;3.90;;
48935;SDS011;34745;52.276;10.528;2022-12-28T07:58:23;8.20;;;4.60;;
48935;SDS011;34745;52.276;10.528;2022-12-28T08:00:50;12.93;;;5.00;;
48935;SDS011;34745;52.276;10.528;2022-12-28T08:03:17;7.33;;;4.20;;
48935;SDS011;34745;52.276;10.528;2022-12-28T08:05:44;6.47;;;4.10;;
48935;SDS011;34745;52.276;10.528;2022-12-28T08:08:11;5.37;;;4.37;;
48935;SDS011;34745;52.276;10.528;2022-12-28T08:10:40;6.93;;;4.40;;
48935;SDS011;34745;52.276;10.528;2022-12-28T08:13:07;5.43;;;3.93;;
48935;SDS011;34745;52.276;10.528;2022-12-28T08:15:34;6.17;;;4.07;;
48935;SDS011;34745;52.276;10.528;2022-12-28T08:18:01;6.57;;;3.97;;
48935;SDS011;34745;52.276;10.528;2022-12-28T08:20:28;6.23;;;4.27;;
48935;SDS011;34745;52.276;10.528;2022-12-28T08:22:55;6.33;;;5.13;;
48935;SDS011;34745;52.276;10.528;2022-12-28T08:25:22;8.27;;;4.47;;
48935;SDS011;34745;52.276;10.528;2022-12-28T08:27:50;6.13;;;4.07;;
48935;SDS011;34745;52.276;10.528;2022-12-28T08:30:17;5.47;;;4.67;;
48935;SDS011;34745;52.276;10.528;2022-12-28T08:32:44;8.70;;;4.40;;
48935;SDS011;34745;52.276;10.528;2022-12-28T08:35:11;5.17;;;3.90;;
48935;SDS011;34745;52.276;10.528;2022-12-28T08:37:38;6.83;;;4.40;;
48935;SDS011;34745;52.276;10.528;2022-12-28T08:40:05;7.73;;;4.20;;
48935;SDS011;34745;52.276;10.528;2022-12-28T08:42:33;4.67;;;4.17;;
48935;SDS011;34745;52.276;10.528;2022-12-28T08:45:01;5.20;;;3.97;;
48935;SDS011;34745;52.276;10.528;2022-12-28T08:47:29;10.23;;;4.47;;
48935;SDS011;34745;52.276;10.528;2022-12-28T08:49:56;5.63;;;4.10;;
48935;SDS011;34745;52.276;10.528;2022-12-28T08:52:23;6.03;;;4.13;;
48935;SDS011;34745;52.276;10.528;2022-12-28T08:54:50;7.07;;;4.33;;
48935;SDS011;34745;52.276;10.528;2022-12-28T08:57:16;7.60;;;4.60;;
48935;SDS011;34745;52.276;10.528;2022-12-28T08:59:43;5.47;;;3.87;;
48935;SDS011;34745;52.276;10.528;2022-12-28T09:02:12;6.93;;;3.97;;
48935;SDS011;34745;52.276;10.528;2022-12-28T09:04:39;5.17;;;4.17;;
48935;SDS011;34745;52.276;10.528;2022-12-28T09:07:07;5.10;;;4.00;;
48935;SDS011;34745;52.276;10.528;2022-12-28T09:09:33;4.00;;;3.10;;
48935;SDS011;34745;52.276;10.528;2022-12-28T09:12:01;5.97;;;4.03;;
48935;SDS011;34745;52.276;10.528;2022-12-28T09:14:28;5.13;;;3.63;;
48935;SDS011;34745;52.276;10.528;2022-12-28T09:16:55;6.37;;;4.53;;
48935;SDS011;34745;52.276;10.528;2022-12-28T09:19:23;6.97;;;4.90;;
48935;SDS011;34745;52.276;10.528;2022-12-28T09:21:50;5.53;;;4.37;;
48935;SDS011;34745;52.276;10.528;2022-12-28T09:24:18;6.43;;;4.47;;
48935;SDS011;34745;52.276;10.528;2022-12-28T09:26:45;4.03;;;3.70;;
48935;SDS011;34745;52.276;10.528;2022-12-28T09:29:12;5.90;;;3.77;;
48935;SDS011;34745;52.276;10.528;2022-12-28T09:31:41;5.73;;;4.43;;
48935;SDS011;34745;52.276;10.528;2022-12-28T09:34:09;5.37;;;4.17;;
48935;SDS011;34745;52.276;10.528;2022-12-28T09:37:00;4.67;;;3.70;;
48935;SDS011;34745;52.276;10.528;2022-12-28T09:39:27;4.17;;;3.40;;
48935;SDS011;34745;52.276;10.528;2022-12-28T09:41:56;3.87;;;2.70;;
48935;SDS011;34745;52.276;10.528;2022-12-28T09:44:30;5.40;;;3.57;;
48935;SDS011;34745;52.276;10.528;2022-12-28T09:47:20;8.07;;;3.90;;
48935;SDS011;34745;52.276;10.528;2022-12-28T09:49:59;4.73;;;3.50;;
48935;SDS011;34745;52.276;10.528;2022-12-28T09:52:56;3.87;;;3.27;;
48935;SDS011;34745;52.276;10.528;2022-12-28T09:55:37;7.37;;;4.10;;
48935;SDS011;34745;52.276;10.528;2022-12-28T09:58:10;4.73;;;3.63;;
48935;SDS011;34745;52.276;10.528;2022-12-28T10:00:40;5.07;;;4.20;;
48935;SDS011;34745;52.276;10.528;2022-12-28T10:03:13;3.90;;;3.13;;
48935;SDS011;34745;52.276;10.528;2022-12-28T10:05:41;4.27;;;3.67;;
48935;SDS011;34745;52.276;10.528;2022-12-28T10:08:11;3.97;;;3.57;;
48935;SDS011;34745;52.276;10.528;2022-12-28T10:10:41;4.97;;;3.83;;
48935;SDS011;34745;52.276;10.528;2022-12-28T10:13:14;3.13;;;2.83;;
48935;SDS011;34745;52.276;10.528;2022-12-28T10:16:04;3.83;;;3.33;;
48935;SDS011;34745;52.276;10.528;2022-12-28T10:18:32;5.80;;;3.53;;
48935;SDS011;34745;52.276;10.528;2022-12-28T10:21:04;4.37;;;3.97;;
48935;SDS011;34745;52.276;10.528;2022-12-28T10:23:33;3.70;;;3.40;;
48935;SDS011;34745;52.276;10.528;2022-12-28T10:26:21;9.53;;;3.03;;
48935;SDS011;34745;52.276;10.528;2022-12-28T10:28:50;7.03;;;3.80;;
48935;SDS011;34745;52.276;10.528;2022-12-28T10:31:29;8.60;;;3.53;;
48935;SDS011;34745;52.276;10.528;2022-12-28T10:33:58;6.63;;;3.77;;
48935;SDS011;34745;52.276;10.528;2022-12-28T10:36:25;7.03;;;3.63;;
48935;SDS011;34745;52.276;10.528;2022-12-28T10:39:02;3.13;;;2.83;;
48935;SDS011;34745;52.276;10.528;2022-12-28T10:41:34;4.67;;;3.23;;
48935;SDS011;34745;52.276;10.528;2022-12-28T10:44:18;5.17;;;3.17;;
48935;SDS011;34745;52.276;10.528;2022-12-28T10:47:05;3.97;;;3.43;;
48935;SDS011;34745;52.276;10.528;2022-12-28T10:49:46;4.27;;;3.47;;
48935;SDS011;34745;52.276;10.528;2022-12-28T10:52:36;4.07;;;3.33;;
48935;SDS011;34745;52.276;10.528;2022-12-28T10:55:11;4.07;;;3.50;;
48935;SDS011;34745;52.276;10.528;2022-12-28T10:57:53;3.50;;;2.90;;
48935;SDS011;34745;52.276;10.528;2022-12-28T11:00:40;4.17;;;3.30;;
48935;SDS011;34745;52.276;10.528;2022-12-28T11:03:16;4.70;;;3.53;;
48935;SDS011;34745;52.276;10.528;2022-12-28T11:05:44;4.47;;;3.43;;
48935;SDS011;34745;52.276;10.528;2022-12-28T11:08:21;4.40;;;3.30;;
48935;SDS011;34745;52.276;10.528;2022-12-28T11:10:50;7.73;;;3.53;;
48935;SDS011;34745;52.276;10.528;2022-12-28T11:13:22;4.70;;;3.10;;
48935;SDS011;34745;52.276;10.528;2022-12-28T11:15:49;3.63;;;3.30;;
48935;SDS011;34745;52.276;10.528;2022-12-28T11:18:16;3.37;;;3.07;;
48935;SDS011;34745;52.276;10.528;2022-12-28T11:20:45;7.37;;;2.90;;
48935;SDS011;34745;52.276;10.528;2022-12-28T11:23:15;4.07;;;3.23;;
48935;SDS011;34745;52.276;10.528;2022-12-28T11:25:44;4.70;;;3.10;;
48935;SDS011;34745;52.276;10.528;2022-12-28T11:28:13;6.90;;;4.03;;
48935;SDS011;34745;52.276;10.528;2022-12-28T11:30:43;6.30;;;3.10;;
48935;SDS011;34745;52.276;10.528;2022-12-28T11:33:21;3.40;;;3.10;;
48935;SDS011;34745;52.276;10.528;2022-12-28T11:35:52;2.80;;;2.47;;
48935;SDS011;34745;52.276;10.528;2022-12-28T11:38:38;3.10;;;2.60;;
48935;SDS011;34745;52.276;10.528;2022-12-28T11:41:08;3.10;;;2.40;;
48935;SDS011;34745;52.276;10.528;2022-12-28T11:43:48;2.90;;;2.63;;
48935;SDS011;34745;52.276;10.528;2022-12-28T11:49:24;4.80;;;2.30;;
48935;SDS011;34745;52.276;10.528;2022-12-28T12:01:02;3.43;;;2.30;;
48935;SDS011;34745;52.276;10.528;2022-12-28T12:09:39;3.50;;;2.20;;
48935;SDS011;34745;52.276;10.528;2022-12-28T12:15:03;4.27;;;2.87;;
48935;SDS011;34745;52.276;10.528;2022-12-28T12:17:39;4.20;;;2.80;;
48935;SDS011;34745;52.276;10.528;2022-12-28T12:23:18;3.13;;;2.70;;
48935;SDS011;34745;52.276;10.528;2022-12-28T12:25:57;5.80;;;3.00;;
48935;SDS011;34745;52.276;10.528;2022-12-28T12:28:33;7.97;;;2.63;;
48935;SDS011;34745;52.276;10.528;2022-12-28T12:31:06;6.00;;;3.27;;
48935;SDS011;34745;52.276;10.528;2022-12-28T12:33:40;3.07;;;2.77;;
48935;SDS011;34745;52.276;10.528;2022-12-28T12:36:17;2.73;;;2.37;;
48935;SDS011;34745;52.276;10.528;2022-12-28T12:39:10;9.17;;;3.13;;
48935;SDS011;34745;52.276;10.528;2022-12-28T12:41:50;4.23;;;2.63;;
48935;SDS011;34745;52.276;10.528;2022-12-28T12:44:28;5.63;;;3.00;;
48935;SDS011;34745;52.276;10.528;2022-12-28T12:47:05;4.93;;;3.07;;
48935;SDS011;34745;52.276;10.528;2022-12-28T12:49:57;4.60;;;3.50;;
48935;SDS011;34745;52.276;10.528;2022-12-28T12:52:40;3.97;;;3.07;;
48935;SDS011;34745;52.276;10.528;2022-12-28T12:55:20;4.13;;;2.80;;
48935;SDS011;34745;52.276;10.528;2022-12-28T12:57:56;8.43;;;3.50;;
48935;SDS011;34745;52.276;10.528;2022-12-28T13:00:30;8.97;;;4.00;;
48935;SDS011;34745;52.276;10.528;2022-12-28T13:03:18;7.23;;;3.90;;
48935;SDS011;34745;52.276;10.528;2022-12-28T13:05:56;5.23;;;3.27;;
48935;SDS011;34745;52.276;10.528;2022-12-28T13:08:24;7.43;;;3.03;;
48935;SDS011;34745;52.276;10.528;2022-12-28T13:10:57;5.10;;;3.30;;
48935;SDS011;34745;52.276;10.528;2022-12-28T13:13:26;6.53;;;3.10;;
48935;SDS011;34745;52.276;10.528;2022-12-28T13:15:58;4.50;;;2.93;;
48935;SDS011;34745;52.276;10.528;2022-12-28T13:18:29;5.20;;;3.27;;
48935;SDS011;34745;52.276;10.528;2022-12-28T13:21:17;4.77;;;3.07;;
48935;SDS011;34745;52.276;10.528;2022-12-28T13:23:46;5.07;;;2.60;;
48935;SDS011;34745;52.276;10.528;2022-12-28T13:26:14;6.47;;;2.50;;
48935;SDS011;34745;52.276;10.528;2022-12-28T13:28:45;3.87;;;2.20;;
48935;SDS011;34745;52.276;10.528;2022-12-28T13:31:17;4.53;;;2.37;;
48935;SDS011;34745;52.276;10.528;2022-12-28T13:33:55;5.13;;;2.87;;
48935;SDS011;34745;52.276;10.528;2022-12-28T13:36:25;3.50;;;2.37;;
48935;SDS011;34745;52.276;10.528;2022-12-28T13:39:03;4.13;;;2.80;;
48935;SDS011;34745;52.276;10.528;2022-12-28T13:41:35;5.33;;;2.77;;
48935;SDS011;34745;52.276;10.528;2022-12-28T13:44:12;5.23;;;2.40;;
48935;SDS011;34745;52.276;10.528;2022-12-28T13:46:49;2.60;;;2.40;;
48935;SDS011;34745;52.276;10.528;2022-12-28T13:49:20;4.60;;;2.70;;
48935;SDS011;34745;52.276;10.528;2022-12-28T13:51:50;4.13;;;2.50;;
48935;SDS011;34745;52.276;10.528;2022-12-28T13:54:19;5.40;;;2.77;;
48935;SDS011;34745;52.276;10.528;2022-12-28T13:56:47;2.83;;;2.43;;
48935;SDS011;34745;52.276;10.528;2022-12-28T13:59:15;4.83;;;2.63;;
48935;SDS011;34745;52.276;10.528;2022-12-28T14:01:45;7.63;;;2.87;;
48935;SDS011;34745;52.276;10.528;2022-12-28T14:04:17;4.73;;;2.47;;
48935;SDS011;34745;52.276;10.528;2022-12-28T14:07:11;2.87;;;2.20;;
48935;SDS011;34745;52.276;10.528;2022-12-28T14:09:40;5.13;;;2.40;;
48935;SDS011;34745;52.276;10.528;2022-12-28T14:12:07;3.63;;;2.50;;
48935;SDS011;34745;52.276;10.528;2022-12-28T14:14:35;2.93;;;2.10;;
48935;SDS011;34745;52.276;10.528;2022-12-28T14:17:03;5.83;;;2.43;;
48935;SDS011;34745;52.276;10.528;2022-12-28T14:19:31;3.93;;;2.27;;
48935;SDS011;34745;52.276;10.528;2022-12-28T14:21:58;3.77;;;2.07;;
48935;SDS011;34745;52.276;10.528;2022-12-28T14:24:27;5.13;;;2.67;;
48935;SDS011;34745;52.276;10.528;2022-12-28T14:26:54;3.37;;;2.13;;
48935;SDS011;34745;52.276;10.528;2022-12-28T14:29:25;5.07;;;2.30;;
48935;SDS011;34745;52.276;10.528;2022-12-28T14:31:55;2.93;;;2.30;;
48935;SDS011;34745;52.276;10.528;2022-12-28T14:34:25;4.70;;;2.10;;
48935;SDS011;34745;52.276;10.528;2022-12-28T14:36:54;4.50;;;2.40;;
48935;SDS011;34745;52.276;10.528;2022-12-28T14:39:25;4.63;;;2.40;;
48935;SDS011;34745;52.276;10.528;2022-12-28T14:41:56;2.73;;;2.20;;
48935;SDS011;34745;52.276;10.528;2022-12-28T14:44:26;4.97;;;2.37;;
48935;SDS011;34745;52.276;10.528;2022-12-28T14:46:56;5.00;;;2.30;;
48935;SDS011;34745;52.276;10.528;2022-12-28T14:49:29;6.33;;;2.60;;
48935;SDS011;34745;52.276;10.528;2022-12-28T14:55:22;3.47;;;2.33;;
48935;SDS011;34745;52.276;10.528;2022-12-28T14:57:54;4.33;;;2.60;;
48935;SDS011;34745;52.276;10.528;2022-12-28T15:00:26;5.13;;;2.70;;
48935;SDS011;34745;52.276;10.528;2022-12-28T15:02:55;6.67;;;2.80;;
48935;SDS011;34745;52.276;10.528;2022-12-28T15:05:34;9.53;;;3.43;;
48935;SDS011;34745;52.276;10.528;2022-12-28T15:08:06;4.40;;;2.50;;
48935;SDS011;34745;52.276;10.528;2022-12-28T15:10:38;4.07;;;2.57;;
48935;SDS011;34745;52.276;10.528;2022-12-28T15:13:07;6.03;;;2.43;;
48935;SDS011;34745;52.276;10.528;2022-12-28T15:15:34;2.77;;;2.50;;
48935;SDS011;34745;52.276;10.528;2022-12-28T15:18:01;6.07;;;2.90;;
48935;SDS011;34745;52.276;10.528;2022-12-28T15:20:29;6.23;;;2.90;;
48935;SDS011;34745;52.276;10.528;2022-12-28T15:22:56;6.90;;;3.37;;
48935;SDS011;34745;52.276;10.528;2022-12-28T15:25:23;3.87;;;2.50;;
48935;SDS011;34745;52.276;10.528;2022-12-28T15:27:52;4.23;;;2.83;;
48935;SDS011;34745;52.276;10.528;2022-12-28T15:30:19;4.53;;;2.67;;